aviador You're here:

OBBI Decoded Metar

BAHRAIN in BAHRAIN
Report Time2017-08-18 16:00:00
UTC Time2017-08-18 16:28:00
Flight Rules mvfr MVFR
Wind360° at 07 kt
W.Decomp.*RWY 30: 3.7 kt HW 5.9 kt RCW
Visibility6000 m
Phenomena:N/A
Clouds:N/A
Expected CloudBase > 3,200 ft AGL from Temp-Dew spread
CeilingNone
Temp36°C (ISA +21)
Dew Point28°C (63% RH)
Heat Index49.8°C
QNH1000 hPa
Density Alt3,317 ft
Elevation7 ft
Report Wrong Elevation
Raw Report
METAR OBBI 181600Z 36007KT 6000 SKC 36/28 Q1000 NOSIG=

Extra information for OBBI:More info

Metar Taf Metar & Taf Last 4 Metars F.Rules Stats Wind Profile Meteogram Temp Stats Airport Information Weather charts Add Link Nearby VenuesMetar ALERT Operation Metar Decoded Social comments